Aviation Digital Data Service (ADDS)

Output produced by TAFs form (1446 UTC 24 July 2016)
found at http://aviationweather.gov/adds/tafs/
 
KMTJ 241120Z 2412/2512 12006KT P6SM VCTS FEW080CB SCT100 
     TEMPO 2412/2413 -TSRA 
     FM241500 31004KT P6SM SCT120 
     FM241800 29005KT P6SM SCT080 SCT120 
     FM250200 09004KT P6SM FEW250